sensor_id;sensor_type;location;lat;lon;timestamp;P1;durP1;ratioP1;P2;durP2;ratioP2
50355;SDS011;36264;51.296;-0.602;2023-05-27T00:01:42;12.93;;;3.47;;
50355;SDS011;36264;51.296;-0.602;2023-05-27T00:04:08;11.93;;;3.40;;
50355;SDS011;36264;51.296;-0.602;2023-05-27T00:06:33;7.88;;;2.50;;
50355;SDS011;36264;51.296;-0.602;2023-05-27T00:08:58;12.70;;;3.42;;
50355;SDS011;36264;51.296;-0.602;2023-05-27T00:11:24;7.10;;;2.40;;
50355;SDS011;36264;51.296;-0.602;2023-05-27T00:13:50;8.38;;;2.35;;
50355;SDS011;36264;51.296;-0.602;2023-05-27T00:16:15;7.15;;;3.03;;
50355;SDS011;36264;51.296;-0.602;2023-05-27T00:18:41;7.40;;;2.58;;
50355;SDS011;36264;51.296;-0.602;2023-05-27T00:21:07;8.73;;;2.53;;
50355;SDS011;36264;51.296;-0.602;2023-05-27T00:23:32;8.63;;;2.97;;
50355;SDS011;36264;51.296;-0.602;2023-05-27T00:25:57;9.27;;;2.40;;
50355;SDS011;36264;51.296;-0.602;2023-05-27T00:28:23;7.88;;;2.75;;
50355;SDS011;36264;51.296;-0.602;2023-05-27T00:30:48;9.05;;;2.65;;
50355;SDS011;36264;51.296;-0.602;2023-05-27T00:33:14;9.25;;;2.80;;
50355;SDS011;36264;51.296;-0.602;2023-05-27T00:35:39;7.13;;;2.42;;
50355;SDS011;36264;51.296;-0.602;2023-05-27T00:38:05;8.77;;;2.53;;
50355;SDS011;36264;51.296;-0.602;2023-05-27T00:40:30;9.07;;;2.60;;
50355;SDS011;36264;51.296;-0.602;2023-05-27T00:42:58;11.88;;;3.15;;
50355;SDS011;36264;51.296;-0.602;2023-05-27T00:45:23;13.48;;;2.60;;
50355;SDS011;36264;51.296;-0.602;2023-05-27T00:47:48;13.50;;;3.03;;
50355;SDS011;36264;51.296;-0.602;2023-05-27T00:50:14;10.95;;;2.97;;
50355;SDS011;36264;51.296;-0.602;2023-05-27T00:52:42;12.45;;;3.55;;
50355;SDS011;36264;51.296;-0.602;2023-05-27T00:55:08;12.30;;;3.13;;
50355;SDS011;36264;51.296;-0.602;2023-05-27T00:57:34;8.73;;;2.67;;
50355;SDS011;36264;51.296;-0.602;2023-05-27T00:59:59;11.82;;;2.67;;
50355;SDS011;36264;51.296;-0.602;2023-05-27T01:02:24;11.70;;;2.75;;
50355;SDS011;36264;51.296;-0.602;2023-05-27T01:04:50;11.95;;;3.97;;
50355;SDS011;36264;51.296;-0.602;2023-05-27T01:07:25;13.90;;;3.55;;
50355;SDS011;36264;51.296;-0.602;2023-05-27T01:10:01;17.45;;;3.58;;
50355;SDS011;36264;51.296;-0.602;2023-05-27T01:12:39;11.25;;;3.03;;
50355;SDS011;36264;51.296;-0.602;2023-05-27T01:15:31;12.60;;;3.35;;
50355;SDS011;36264;51.296;-0.602;2023-05-27T01:17:58;14.60;;;4.53;;
50355;SDS011;36264;51.296;-0.602;2023-05-27T01:20:26;17.13;;;4.00;;
50355;SDS011;36264;51.296;-0.602;2023-05-27T01:22:54;8.98;;;2.50;;
50355;SDS011;36264;51.296;-0.602;2023-05-27T01:25:22;15.55;;;3.72;;
50355;SDS011;36264;51.296;-0.602;2023-05-27T01:27:48;8.57;;;3.10;;
50355;SDS011;36264;51.296;-0.602;2023-05-27T01:30:15;10.40;;;3.30;;
50355;SDS011;36264;51.296;-0.602;2023-05-27T01:32:42;9.45;;;3.10;;
50355;SDS011;36264;51.296;-0.602;2023-05-27T01:37:40;8.68;;;2.78;;
50355;SDS011;36264;51.296;-0.602;2023-05-27T01:40:08;8.45;;;2.75;;
50355;SDS011;36264;51.296;-0.602;2023-05-27T01:42:34;13.32;;;3.53;;
50355;SDS011;36264;51.296;-0.602;2023-05-27T01:45:01;8.05;;;2.45;;
50355;SDS011;36264;51.296;-0.602;2023-05-27T01:47:30;7.60;;;2.50;;
50355;SDS011;36264;51.296;-0.602;2023-05-27T01:49:55;6.93;;;2.50;;
50355;SDS011;36264;51.296;-0.602;2023-05-27T01:52:21;6.63;;;2.47;;
50355;SDS011;36264;51.296;-0.602;2023-05-27T01:54:46;10.88;;;2.28;;
50355;SDS011;36264;51.296;-0.602;2023-05-27T01:57:11;10.68;;;3.10;;
50355;SDS011;36264;51.296;-0.602;2023-05-27T01:59:37;9.65;;;2.70;;
50355;SDS011;36264;51.296;-0.602;2023-05-27T02:02:02;8.13;;;2.50;;
50355;SDS011;36264;51.296;-0.602;2023-05-27T02:04:28;8.00;;;2.42;;
50355;SDS011;36264;51.296;-0.602;2023-05-27T02:06:53;6.60;;;2.35;;
50355;SDS011;36264;51.296;-0.602;2023-05-27T02:09:18;6.60;;;2.50;;
50355;SDS011;36264;51.296;-0.602;2023-05-27T02:11:45;9.32;;;2.65;;
50355;SDS011;36264;51.296;-0.602;2023-05-27T02:14:10;8.15;;;2.53;;
50355;SDS011;36264;51.296;-0.602;2023-05-27T02:16:36;8.80;;;2.78;;
50355;SDS011;36264;51.296;-0.602;2023-05-27T02:19:01;6.22;;;2.38;;
50355;SDS011;36264;51.296;-0.602;2023-05-27T02:21:27;8.75;;;2.50;;
50355;SDS011;36264;51.296;-0.602;2023-05-27T02:23:53;8.90;;;2.97;;
50355;SDS011;36264;51.296;-0.602;2023-05-27T02:26:18;7.30;;;2.35;;
50355;SDS011;36264;51.296;-0.602;2023-05-27T02:28:43;7.80;;;2.35;;
50355;SDS011;36264;51.296;-0.602;2023-05-27T02:31:09;7.88;;;2.17;;
50355;SDS011;36264;51.296;-0.602;2023-05-27T02:33:34;9.45;;;2.75;;
50355;SDS011;36264;51.296;-0.602;2023-05-27T02:35:59;6.07;;;2.45;;
50355;SDS011;36264;51.296;-0.602;2023-05-27T02:38:25;7.50;;;3.22;;
50355;SDS011;36264;51.296;-0.602;2023-05-27T02:40:51;8.85;;;2.80;;
50355;SDS011;36264;51.296;-0.602;2023-05-27T02:43:16;5.60;;;2.40;;
50355;SDS011;36264;51.296;-0.602;2023-05-27T02:45:41;13.23;;;3.38;;
50355;SDS011;36264;51.296;-0.602;2023-05-27T02:48:07;11.20;;;3.13;;
50355;SDS011;36264;51.296;-0.602;2023-05-27T02:50:33;8.23;;;2.58;;
50355;SDS011;36264;51.296;-0.602;2023-05-27T02:52:58;7.35;;;2.63;;
50355;SDS011;36264;51.296;-0.602;2023-05-27T02:55:24;8.93;;;2.92;;
50355;SDS011;36264;51.296;-0.602;2023-05-27T02:57:49;7.07;;;2.42;;
50355;SDS011;36264;51.296;-0.602;2023-05-27T03:00:15;9.82;;;2.78;;
50355;SDS011;36264;51.296;-0.602;2023-05-27T03:02:41;8.48;;;2.53;;
50355;SDS011;36264;51.296;-0.602;2023-05-27T03:05:06;10.07;;;3.03;;
50355;SDS011;36264;51.296;-0.602;2023-05-27T03:07:32;7.47;;;3.13;;
50355;SDS011;36264;51.296;-0.602;2023-05-27T03:09:58;13.82;;;3.45;;
50355;SDS011;36264;51.296;-0.602;2023-05-27T03:12:23;8.70;;;3.20;;
50355;SDS011;36264;51.296;-0.602;2023-05-27T03:14:49;9.40;;;3.25;;
50355;SDS011;36264;51.296;-0.602;2023-05-27T03:17:15;10.60;;;3.25;;
50355;SDS011;36264;51.296;-0.602;2023-05-27T03:19:40;10.65;;;3.35;;
50355;SDS011;36264;51.296;-0.602;2023-05-27T03:22:06;9.40;;;3.17;;
50355;SDS011;36264;51.296;-0.602;2023-05-27T03:24:32;9.32;;;3.15;;
50355;SDS011;36264;51.296;-0.602;2023-05-27T03:26:58;10.57;;;3.53;;
50355;SDS011;36264;51.296;-0.602;2023-05-27T03:29:24;6.63;;;2.92;;
50355;SDS011;36264;51.296;-0.602;2023-05-27T03:31:49;6.82;;;3.30;;
50355;SDS011;36264;51.296;-0.602;2023-05-27T03:34:15;7.50;;;3.00;;
50355;SDS011;36264;51.296;-0.602;2023-05-27T03:36:40;8.43;;;3.15;;
50355;SDS011;36264;51.296;-0.602;2023-05-27T03:39:07;10.38;;;4.35;;
50355;SDS011;36264;51.296;-0.602;2023-05-27T03:41:33;10.35;;;3.30;;
50355;SDS011;36264;51.296;-0.602;2023-05-27T03:43:58;11.13;;;4.07;;
50355;SDS011;36264;51.296;-0.602;2023-05-27T03:46:23;10.52;;;3.30;;
50355;SDS011;36264;51.296;-0.602;2023-05-27T03:48:49;14.65;;;4.13;;
50355;SDS011;36264;51.296;-0.602;2023-05-27T03:51:14;13.70;;;3.45;;
50355;SDS011;36264;51.296;-0.602;2023-05-27T03:53:40;13.20;;;3.40;;
50355;SDS011;36264;51.296;-0.602;2023-05-27T03:56:05;6.63;;;2.80;;
50355;SDS011;36264;51.296;-0.602;2023-05-27T03:58:31;7.45;;;3.00;;
50355;SDS011;36264;51.296;-0.602;2023-05-27T04:00:56;8.25;;;3.22;;
50355;SDS011;36264;51.296;-0.602;2023-05-27T04:03:21;12.63;;;3.53;;
50355;SDS011;36264;51.296;-0.602;2023-05-27T04:05:47;9.32;;;3.05;;
50355;SDS011;36264;51.296;-0.602;2023-05-27T04:08:12;11.90;;;3.60;;
50355;SDS011;36264;51.296;-0.602;2023-05-27T04:10:38;9.50;;;3.00;;
50355;SDS011;36264;51.296;-0.602;2023-05-27T04:13:03;11.90;;;3.47;;
50355;SDS011;36264;51.296;-0.602;2023-05-27T04:15:29;12.18;;;3.53;;
50355;SDS011;36264;51.296;-0.602;2023-05-27T04:17:54;8.90;;;3.13;;
50355;SDS011;36264;51.296;-0.602;2023-05-27T04:20:20;7.47;;;3.08;;
50355;SDS011;36264;51.296;-0.602;2023-05-27T04:22:46;9.98;;;3.05;;
50355;SDS011;36264;51.296;-0.602;2023-05-27T04:25:12;7.32;;;2.80;;
50355;SDS011;36264;51.296;-0.602;2023-05-27T04:27:37;10.10;;;3.33;;
50355;SDS011;36264;51.296;-0.602;2023-05-27T04:30:05;9.00;;;3.05;;
50355;SDS011;36264;51.296;-0.602;2023-05-27T04:32:31;6.88;;;2.60;;
50355;SDS011;36264;51.296;-0.602;2023-05-27T04:34:58;10.18;;;3.63;;
50355;SDS011;36264;51.296;-0.602;2023-05-27T04:37:25;6.82;;;2.78;;
50355;SDS011;36264;51.296;-0.602;2023-05-27T04:39:53;9.95;;;3.38;;
50355;SDS011;36264;51.296;-0.602;2023-05-27T04:42:22;13.45;;;3.75;;
50355;SDS011;36264;51.296;-0.602;2023-05-27T04:44:50;11.07;;;3.20;;
50355;SDS011;36264;51.296;-0.602;2023-05-27T04:47:15;10.32;;;3.10;;
50355;SDS011;36264;51.296;-0.602;2023-05-27T04:49:41;8.73;;;3.00;;
50355;SDS011;36264;51.296;-0.602;2023-05-27T04:52:07;10.27;;;3.15;;
50355;SDS011;36264;51.296;-0.602;2023-05-27T04:54:32;10.77;;;3.47;;
50355;SDS011;36264;51.296;-0.602;2023-05-27T04:56:58;13.38;;;3.80;;
50355;SDS011;36264;51.296;-0.602;2023-05-27T04:59:24;11.60;;;3.40;;
50355;SDS011;36264;51.296;-0.602;2023-05-27T05:02:00;9.68;;;3.55;;
50355;SDS011;36264;51.296;-0.602;2023-05-27T05:04:37;10.40;;;3.58;;
50355;SDS011;36264;51.296;-0.602;2023-05-27T05:07:03;9.48;;;3.28;;
50355;SDS011;36264;51.296;-0.602;2023-05-27T05:09:29;12.05;;;3.60;;
50355;SDS011;36264;51.296;-0.602;2023-05-27T05:11:54;9.07;;;4.07;;
50355;SDS011;36264;51.296;-0.602;2023-05-27T05:14:20;9.52;;;3.30;;
50355;SDS011;36264;51.296;-0.602;2023-05-27T05:16:45;7.30;;;2.78;;
50355;SDS011;36264;51.296;-0.602;2023-05-27T05:19:12;9.05;;;2.90;;
50355;SDS011;36264;51.296;-0.602;2023-05-27T05:21:37;10.45;;;3.17;;
50355;SDS011;36264;51.296;-0.602;2023-05-27T05:24:03;7.88;;;2.70;;
50355;SDS011;36264;51.296;-0.602;2023-05-27T05:26:29;6.18;;;2.65;;
50355;SDS011;36264;51.296;-0.602;2023-05-27T05:28:54;10.50;;;2.85;;
50355;SDS011;36264;51.296;-0.602;2023-05-27T05:31:20;8.65;;;3.25;;
50355;SDS011;36264;51.296;-0.602;2023-05-27T05:33:45;7.38;;;2.95;;
50355;SDS011;36264;51.296;-0.602;2023-05-27T05:36:10;11.80;;;3.63;;
50355;SDS011;36264;51.296;-0.602;2023-05-27T05:38:36;12.18;;;3.40;;
50355;SDS011;36264;51.296;-0.602;2023-05-27T05:41:02;9.25;;;3.22;;
50355;SDS011;36264;51.296;-0.602;2023-05-27T05:43:28;10.40;;;3.33;;
50355;SDS011;36264;51.296;-0.602;2023-05-27T05:45:53;7.68;;;3.13;;
50355;SDS011;36264;51.296;-0.602;2023-05-27T05:48:19;10.68;;;3.17;;
50355;SDS011;36264;51.296;-0.602;2023-05-27T05:50:44;12.70;;;3.45;;
50355;SDS011;36264;51.296;-0.602;2023-05-27T05:53:10;8.00;;;3.38;;
50355;SDS011;36264;51.296;-0.602;2023-05-27T05:55:35;12.27;;;2.95;;
50355;SDS011;36264;51.296;-0.602;2023-05-27T05:58:01;7.47;;;2.67;;
50355;SDS011;36264;51.296;-0.602;2023-05-27T06:00:26;9.88;;;2.70;;
50355;SDS011;36264;51.296;-0.602;2023-05-27T06:02:52;12.38;;;3.10;;
50355;SDS011;36264;51.296;-0.602;2023-05-27T06:05:17;11.05;;;3.47;;
50355;SDS011;36264;51.296;-0.602;2023-05-27T06:07:43;12.38;;;3.65;;
50355;SDS011;36264;51.296;-0.602;2023-05-27T06:10:08;10.32;;;3.10;;
50355;SDS011;36264;51.296;-0.602;2023-05-27T06:12:34;9.80;;;2.72;;
50355;SDS011;36264;51.296;-0.602;2023-05-27T06:15:00;10.20;;;2.88;;
50355;SDS011;36264;51.296;-0.602;2023-05-27T06:17:26;11.25;;;3.47;;
50355;SDS011;36264;51.296;-0.602;2023-05-27T06:19:51;8.63;;;3.35;;
50355;SDS011;36264;51.296;-0.602;2023-05-27T06:22:17;11.27;;;3.30;;
50355;SDS011;36264;51.296;-0.602;2023-05-27T06:24:42;10.10;;;3.10;;
50355;SDS011;36264;51.296;-0.602;2023-05-27T06:27:07;11.15;;;3.85;;
50355;SDS011;36264;51.296;-0.602;2023-05-27T06:29:33;12.57;;;4.10;;
50355;SDS011;36264;51.296;-0.602;2023-05-27T06:31:58;9.45;;;3.20;;
50355;SDS011;36264;51.296;-0.602;2023-05-27T06:34:23;12.63;;;3.92;;
50355;SDS011;36264;51.296;-0.602;2023-05-27T06:36:49;12.05;;;3.90;;
50355;SDS011;36264;51.296;-0.602;2023-05-27T06:39:15;9.85;;;3.30;;
50355;SDS011;36264;51.296;-0.602;2023-05-27T06:41:41;15.23;;;3.58;;
50355;SDS011;36264;51.296;-0.602;2023-05-27T06:44:06;12.05;;;3.58;;
50355;SDS011;36264;51.296;-0.602;2023-05-27T06:46:31;12.23;;;3.63;;
50355;SDS011;36264;51.296;-0.602;2023-05-27T06:48:57;10.77;;;4.05;;
50355;SDS011;36264;51.296;-0.602;2023-05-27T06:51:22;11.15;;;3.30;;
50355;SDS011;36264;51.296;-0.602;2023-05-27T06:53:48;9.13;;;3.13;;
50355;SDS011;36264;51.296;-0.602;2023-05-27T06:56:13;8.25;;;2.85;;
50355;SDS011;36264;51.296;-0.602;2023-05-27T06:58:39;9.73;;;3.15;;
50355;SDS011;36264;51.296;-0.602;2023-05-27T07:01:04;10.75;;;3.63;;
50355;SDS011;36264;51.296;-0.602;2023-05-27T07:03:30;13.38;;;3.58;;
50355;SDS011;36264;51.296;-0.602;2023-05-27T07:05:55;11.80;;;3.97;;
50355;SDS011;36264;51.296;-0.602;2023-05-27T07:08:21;8.57;;;3.25;;
50355;SDS011;36264;51.296;-0.602;2023-05-27T07:10:46;11.43;;;3.80;;
50355;SDS011;36264;51.296;-0.602;2023-05-27T07:13:11;12.25;;;3.30;;
50355;SDS011;36264;51.296;-0.602;2023-05-27T07:15:38;12.27;;;3.53;;
50355;SDS011;36264;51.296;-0.602;2023-05-27T07:18:04;11.63;;;3.75;;
50355;SDS011;36264;51.296;-0.602;2023-05-27T07:20:30;11.15;;;3.53;;
50355;SDS011;36264;51.296;-0.602;2023-05-27T07:22:56;13.65;;;4.40;;
50355;SDS011;36264;51.296;-0.602;2023-05-27T07:25:22;12.60;;;3.90;;
50355;SDS011;36264;51.296;-0.602;2023-05-27T07:27:48;14.13;;;3.80;;
50355;SDS011;36264;51.296;-0.602;2023-05-27T07:30:13;14.18;;;4.18;;
50355;SDS011;36264;51.296;-0.602;2023-05-27T07:32:39;9.35;;;3.20;;
50355;SDS011;36264;51.296;-0.602;2023-05-27T07:35:04;12.02;;;3.97;;
50355;SDS011;36264;51.296;-0.602;2023-05-27T07:37:30;14.43;;;3.63;;
50355;SDS011;36264;51.296;-0.602;2023-05-27T07:39:55;12.57;;;3.83;;
50355;SDS011;36264;51.296;-0.602;2023-05-27T07:42:21;14.95;;;3.72;;
50355;SDS011;36264;51.296;-0.602;2023-05-27T07:44:46;12.23;;;3.88;;
50355;SDS011;36264;51.296;-0.602;2023-05-27T07:47:11;9.93;;;3.80;;
50355;SDS011;36264;51.296;-0.602;2023-05-27T07:49:37;13.27;;;4.32;;
50355;SDS011;36264;51.296;-0.602;2023-05-27T07:52:02;9.70;;;3.45;;
50355;SDS011;36264;51.296;-0.602;2023-05-27T07:54:28;11.95;;;3.13;;
50355;SDS011;36264;51.296;-0.602;2023-05-27T07:56:53;10.48;;;3.45;;
50355;SDS011;36264;51.296;-0.602;2023-05-27T07:59:18;10.45;;;3.00;;
50355;SDS011;36264;51.296;-0.602;2023-05-27T08:01:45;9.18;;;3.03;;
50355;SDS011;36264;51.296;-0.602;2023-05-27T08:04:10;11.18;;;3.67;;
50355;SDS011;36264;51.296;-0.602;2023-05-27T08:06:35;10.90;;;3.35;;
50355;SDS011;36264;51.296;-0.602;2023-05-27T08:09:01;8.57;;;3.22;;
50355;SDS011;36264;51.296;-0.602;2023-05-27T08:11:29;9.15;;;3.20;;
50355;SDS011;36264;51.296;-0.602;2023-05-27T08:13:56;13.38;;;3.20;;
50355;SDS011;36264;51.296;-0.602;2023-05-27T08:16:21;11.20;;;3.28;;
50355;SDS011;36264;51.296;-0.602;2023-05-27T08:18:47;11.25;;;3.10;;
50355;SDS011;36264;51.296;-0.602;2023-05-27T08:21:12;10.20;;;3.10;;
50355;SDS011;36264;51.296;-0.602;2023-05-27T08:23:37;9.18;;;2.90;;
50355;SDS011;36264;51.296;-0.602;2023-05-27T08:26:03;8.15;;;3.20;;
50355;SDS011;36264;51.296;-0.602;2023-05-27T08:28:29;7.38;;;2.80;;
50355;SDS011;36264;51.296;-0.602;2023-05-27T08:30:54;8.32;;;2.97;;
50355;SDS011;36264;51.296;-0.602;2023-05-27T08:33:20;8.82;;;2.83;;
50355;SDS011;36264;51.296;-0.602;2023-05-27T08:35:46;10.85;;;4.93;;
50355;SDS011;36264;51.296;-0.602;2023-05-27T08:38:11;12.95;;;3.53;;
50355;SDS011;36264;51.296;-0.602;2023-05-27T08:40:37;9.98;;;3.33;;
50355;SDS011;36264;51.296;-0.602;2023-05-27T08:43:03;10.63;;;3.40;;
50355;SDS011;36264;51.296;-0.602;2023-05-27T08:45:30;8.80;;;2.90;;
50355;SDS011;36264;51.296;-0.602;2023-05-27T08:47:56;13.10;;;3.45;;
50355;SDS011;36264;51.296;-0.602;2023-05-27T08:50:22;16.17;;;3.53;;
50355;SDS011;36264;51.296;-0.602;2023-05-27T08:52:49;11.35;;;3.67;;
50355;SDS011;36264;51.296;-0.602;2023-05-27T08:55:19;12.23;;;3.58;;
50355;SDS011;36264;51.296;-0.602;2023-05-27T08:57:50;8.15;;;3.28;;
50355;SDS011;36264;51.296;-0.602;2023-05-27T09:00:17;9.60;;;3.05;;
50355;SDS011;36264;51.296;-0.602;2023-05-27T09:02:44;9.70;;;3.35;;
50355;SDS011;36264;51.296;-0.602;2023-05-27T09:05:10;11.05;;;3.22;;
50355;SDS011;36264;51.296;-0.602;2023-05-27T09:07:36;11.00;;;3.83;;
50355;SDS011;36264;51.296;-0.602;2023-05-27T09:10:03;10.98;;;3.63;;
50355;SDS011;36264;51.296;-0.602;2023-05-27T09:12:31;10.40;;;3.88;;
50355;SDS011;36264;51.296;-0.602;2023-05-27T09:14:56;15.30;;;4.10;;
50355;SDS011;36264;51.296;-0.602;2023-05-27T09:17:22;10.27;;;3.97;;
50355;SDS011;36264;51.296;-0.602;2023-05-27T09:19:50;8.95;;;3.80;;
50355;SDS011;36264;51.296;-0.602;2023-05-27T09:22:25;8.82;;;3.65;;
50355;SDS011;36264;51.296;-0.602;2023-05-27T09:24:54;12.85;;;4.05;;
50355;SDS011;36264;51.296;-0.602;2023-05-27T09:27:27;10.43;;;4.05;;
50355;SDS011;36264;51.296;-0.602;2023-05-27T09:29:57;12.82;;;4.28;;
50355;SDS011;36264;51.296;-0.602;2023-05-27T09:32:27;8.00;;;3.87;;
50355;SDS011;36264;51.296;-0.602;2023-05-27T09:34:55;13.93;;;4.28;;
50355;SDS011;36264;51.296;-0.602;2023-05-27T09:37:28;9.95;;;3.97;;
50355;SDS011;36264;51.296;-0.602;2023-05-27T09:39:57;9.35;;;4.15;;
50355;SDS011;36264;51.296;-0.602;2023-05-27T09:42:23;9.43;;;3.78;;
50355;SDS011;36264;51.296;-0.602;2023-05-27T09:44:49;13.18;;;4.68;;
50355;SDS011;36264;51.296;-0.602;2023-05-27T09:47:15;9.02;;;3.80;;
50355;SDS011;36264;51.296;-0.602;2023-05-27T09:49:43;8.85;;;3.60;;
50355;SDS011;36264;51.296;-0.602;2023-05-27T09:52:10;10.02;;;3.95;;
50355;SDS011;36264;51.296;-0.602;2023-05-27T09:54:36;9.95;;;3.88;;
50355;SDS011;36264;51.296;-0.602;2023-05-27T09:57:02;11.07;;;4.03;;
50355;SDS011;36264;51.296;-0.602;2023-05-27T09:59:30;7.82;;;3.03;;
50355;SDS011;36264;51.296;-0.602;2023-05-27T10:01:56;9.90;;;3.72;;
50355;SDS011;36264;51.296;-0.602;2023-05-27T10:04:25;9.45;;;4.07;;
50355;SDS011;36264;51.296;-0.602;2023-05-27T10:06:50;7.85;;;3.20;;
50355;SDS011;36264;51.296;-0.602;2023-05-27T10:09:17;5.80;;;3.30;;
50355;SDS011;36264;51.296;-0.602;2023-05-27T10:11:43;8.20;;;4.15;;
50355;SDS011;36264;51.296;-0.602;2023-05-27T10:14:10;6.13;;;3.22;;
50355;SDS011;36264;51.296;-0.602;2023-05-27T10:16:36;9.23;;;4.20;;
50355;SDS011;36264;51.296;-0.602;2023-05-27T10:19:02;14.05;;;5.20;;
50355;SDS011;36264;51.296;-0.602;2023-05-27T10:21:34;7.63;;;3.85;;
50355;SDS011;36264;51.296;-0.602;2023-05-27T10:24:09;11.80;;;4.60;;
50355;SDS011;36264;51.296;-0.602;2023-05-27T10:26:39;10.38;;;4.80;;
50355;SDS011;36264;51.296;-0.602;2023-05-27T10:29:10;14.57;;;5.10;;
50355;SDS011;36264;51.296;-0.602;2023-05-27T10:31:44;12.75;;;4.80;;
50355;SDS011;36264;51.296;-0.602;2023-05-27T10:34:09;11.45;;;4.30;;
50355;SDS011;36264;51.296;-0.602;2023-05-27T10:36:35;10.13;;;4.35;;
50355;SDS011;36264;51.296;-0.602;2023-05-27T10:39:05;9.13;;;4.57;;
50355;SDS011;36264;51.296;-0.602;2023-05-27T10:41:50;10.10;;;4.25;;
50355;SDS011;36264;51.296;-0.602;2023-05-27T10:44:28;10.13;;;4.32;;
50355;SDS011;36264;51.296;-0.602;2023-05-27T10:47:01;13.70;;;5.03;;
50355;SDS011;36264;51.296;-0.602;2023-05-27T10:49:27;15.05;;;5.68;;
50355;SDS011;36264;51.296;-0.602;2023-05-27T10:51:57;13.38;;;5.13;;
50355;SDS011;36264;51.296;-0.602;2023-05-27T10:54:26;11.02;;;4.50;;
50355;SDS011;36264;51.296;-0.602;2023-05-27T10:56:51;11.20;;;4.50;;
50355;SDS011;36264;51.296;-0.602;2023-05-27T10:59:23;11.98;;;4.85;;
50355;SDS011;36264;51.296;-0.602;2023-05-27T11:01:52;11.57;;;4.68;;
50355;SDS011;36264;51.296;-0.602;2023-05-27T11:04:18;10.03;;;5.03;;
50355;SDS011;36264;51.296;-0.602;2023-05-27T11:06:59;9.80;;;4.97;;
50355;SDS011;36264;51.296;-0.602;2023-05-27T11:09:25;12.18;;;4.70;;
50355;SDS011;36264;51.296;-0.602;2023-05-27T11:11:51;9.75;;;5.07;;
50355;SDS011;36264;51.296;-0.602;2023-05-27T11:14:16;9.38;;;4.80;;
50355;SDS011;36264;51.296;-0.602;2023-05-27T11:16:47;9.48;;;4.60;;
50355;SDS011;36264;51.296;-0.602;2023-05-27T11:19:17;12.32;;;5.65;;
50355;SDS011;36264;51.296;-0.602;2023-05-27T11:21:44;11.48;;;5.88;;
50355;SDS011;36264;51.296;-0.602;2023-05-27T11:24:14;10.23;;;5.30;;
50355;SDS011;36264;51.296;-0.602;2023-05-27T11:26:42;10.07;;;5.32;;
50355;SDS011;36264;51.296;-0.602;2023-05-27T11:29:10;12.50;;;5.85;;
50355;SDS011;36264;51.296;-0.602;2023-05-27T11:31:36;13.93;;;7.53;;
50355;SDS011;36264;51.296;-0.602;2023-05-27T11:34:10;12.02;;;6.50;;
50355;SDS011;36264;51.296;-0.602;2023-05-27T11:36:37;18.08;;;8.52;;
50355;SDS011;36264;51.296;-0.602;2023-05-27T11:39:03;13.05;;;7.03;;
50355;SDS011;36264;51.296;-0.602;2023-05-27T11:41:29;11.55;;;6.72;;
50355;SDS011;36264;51.296;-0.602;2023-05-27T11:44:05;9.70;;;6.13;;
50355;SDS011;36264;51.296;-0.602;2023-05-27T11:46:34;15.32;;;6.93;;
50355;SDS011;36264;51.296;-0.602;2023-05-27T11:49:00;10.00;;;6.22;;
50355;SDS011;36264;51.296;-0.602;2023-05-27T11:51:28;11.77;;;6.10;;
50355;SDS011;36264;51.296;-0.602;2023-05-27T11:53:54;15.43;;;6.75;;
50355;SDS011;36264;51.296;-0.602;2023-05-27T11:56:20;12.85;;;6.93;;
50355;SDS011;36264;51.296;-0.602;2023-05-27T11:58:46;14.35;;;7.10;;
50355;SDS011;36264;51.296;-0.602;2023-05-27T12:01:12;16.73;;;7.68;;
50355;SDS011;36264;51.296;-0.602;2023-05-27T12:03:37;13.60;;;6.93;;
50355;SDS011;36264;51.296;-0.602;2023-05-27T12:06:02;12.35;;;6.35;;
50355;SDS011;36264;51.296;-0.602;2023-05-27T12:08:28;9.07;;;5.30;;
50355;SDS011;36264;51.296;-0.602;2023-05-27T12:10:54;12.45;;;6.20;;
50355;SDS011;36264;51.296;-0.602;2023-05-27T12:13:20;10.80;;;5.57;;
50355;SDS011;36264;51.296;-0.602;2023-05-27T12:15:46;8.55;;;5.28;;
50355;SDS011;36264;51.296;-0.602;2023-05-27T12:18:15;11.23;;;5.18;;
50355;SDS011;36264;51.296;-0.602;2023-05-27T12:20:41;11.50;;;4.78;;
50355;SDS011;36264;51.296;-0.602;2023-05-27T12:23:06;10.35;;;4.85;;
50355;SDS011;36264;51.296;-0.602;2023-05-27T12:25:32;7.70;;;3.92;;
50355;SDS011;36264;51.296;-0.602;2023-05-27T12:27:57;12.70;;;5.05;;
50355;SDS011;36264;51.296;-0.602;2023-05-27T12:30:22;13.65;;;4.95;;
50355;SDS011;36264;51.296;-0.602;2023-05-27T12:32:48;11.18;;;4.40;;
50355;SDS011;36264;51.296;-0.602;2023-05-27T12:35:13;8.48;;;4.32;;
50355;SDS011;36264;51.296;-0.602;2023-05-27T12:37:39;7.07;;;3.72;;
50355;SDS011;36264;51.296;-0.602;2023-05-27T12:40:05;7.43;;;3.58;;
50355;SDS011;36264;51.296;-0.602;2023-05-27T12:42:34;9.35;;;4.40;;
50355;SDS011;36264;51.296;-0.602;2023-05-27T12:44:59;9.15;;;3.97;;
50355;SDS011;36264;51.296;-0.602;2023-05-27T12:47:25;9.82;;;4.15;;
50355;SDS011;36264;51.296;-0.602;2023-05-27T12:49:50;6.13;;;3.30;;
50355;SDS011;36264;51.296;-0.602;2023-05-27T12:52:16;7.10;;;3.33;;
50355;SDS011;36264;51.296;-0.602;2023-05-27T12:54:41;11.88;;;4.63;;
50355;SDS011;36264;51.296;-0.602;2023-05-27T12:57:06;9.93;;;4.38;;
50355;SDS011;36264;51.296;-0.602;2023-05-27T12:59:32;10.98;;;3.95;;
50355;SDS011;36264;51.296;-0.602;2023-05-27T13:01:58;9.35;;;3.72;;
50355;SDS011;36264;51.296;-0.602;2023-05-27T13:04:24;7.90;;;3.28;;
50355;SDS011;36264;51.296;-0.602;2023-05-27T13:06:49;5.90;;;3.00;;
50355;SDS011;36264;51.296;-0.602;2023-05-27T13:09:15;5.25;;;2.55;;
50355;SDS011;36264;51.296;-0.602;2023-05-27T13:11:41;9.20;;;3.50;;
50355;SDS011;36264;51.296;-0.602;2023-05-27T13:14:06;7.93;;;3.10;;
50355;SDS011;36264;51.296;-0.602;2023-05-27T13:16:32;6.97;;;3.25;;
50355;SDS011;36264;51.296;-0.602;2023-05-27T13:18:57;5.97;;;2.95;;
50355;SDS011;36264;51.296;-0.602;2023-05-27T13:21:23;5.13;;;2.80;;
50355;SDS011;36264;51.296;-0.602;2023-05-27T13:23:48;6.82;;;2.95;;
50355;SDS011;36264;51.296;-0.602;2023-05-27T13:26:14;7.28;;;2.72;;
50355;SDS011;36264;51.296;-0.602;2023-05-27T13:28:39;6.90;;;2.83;;
50355;SDS011;36264;51.296;-0.602;2023-05-27T13:31:05;6.63;;;2.65;;
50355;SDS011;36264;51.296;-0.602;2023-05-27T13:33:30;8.70;;;3.20;;
50355;SDS011;36264;51.296;-0.602;2023-05-27T13:35:55;9.15;;;3.00;;
50355;SDS011;36264;51.296;-0.602;2023-05-27T13:38:21;6.63;;;2.70;;
50355;SDS011;36264;51.296;-0.602;2023-05-27T13:40:46;4.80;;;2.55;;
50355;SDS011;36264;51.296;-0.602;2023-05-27T13:43:12;5.32;;;2.90;;
50355;SDS011;36264;51.296;-0.602;2023-05-27T13:45:37;8.90;;;3.10;;
50355;SDS011;36264;51.296;-0.602;2023-05-27T13:48:03;6.88;;;3.20;;
50355;SDS011;36264;51.296;-0.602;2023-05-27T13:50:28;7.32;;;3.47;;
50355;SDS011;36264;51.296;-0.602;2023-05-27T13:52:54;7.18;;;3.17;;
50355;SDS011;36264;51.296;-0.602;2023-05-27T13:55:19;6.35;;;3.00;;
50355;SDS011;36264;51.296;-0.602;2023-05-27T13:57:45;4.88;;;2.55;;
50355;SDS011;36264;51.296;-0.602;2023-05-27T14:00:10;5.15;;;2.42;;
50355;SDS011;36264;51.296;-0.602;2023-05-27T14:02:36;6.35;;;3.13;;
50355;SDS011;36264;51.296;-0.602;2023-05-27T14:05:02;6.50;;;2.72;;
50355;SDS011;36264;51.296;-0.602;2023-05-27T14:07:28;5.05;;;2.72;;
50355;SDS011;36264;51.296;-0.602;2023-05-27T14:09:54;7.80;;;3.22;;
50355;SDS011;36264;51.296;-0.602;2023-05-27T14:12:19;6.45;;;2.65;;
50355;SDS011;36264;51.296;-0.602;2023-05-27T14:14:45;7.03;;;2.85;;
50355;SDS011;36264;51.296;-0.602;2023-05-27T14:17:10;5.25;;;2.92;;
50355;SDS011;36264;51.296;-0.602;2023-05-27T14:19:35;7.45;;;3.20;;
50355;SDS011;36264;51.296;-0.602;2023-05-27T14:22:01;4.57;;;2.33;;
50355;SDS011;36264;51.296;-0.602;2023-05-27T14:24:26;5.35;;;2.80;;
50355;SDS011;36264;51.296;-0.602;2023-05-27T14:26:52;4.80;;;2.60;;